createdAt,value
2022-10-13T00:00:11.541Z,12.20
2022-10-13T00:05:13.023Z,11.63
2022-10-13T00:10:14.508Z,11.88
2022-10-13T00:15:16.260Z,15.10
2022-10-13T00:20:17.831Z,13.77
2022-10-13T00:25:19.348Z,9.95
2022-10-13T00:30:21.226Z,11.23
2022-10-13T00:35:22.640Z,8.77
2022-10-13T00:40:24.372Z,7.22
2022-10-13T00:45:29.476Z,5.97
2022-10-13T00:50:39.556Z,7.53
2022-10-13T00:55:43.476Z,5.73
2022-10-13T01:00:50.210Z,6.53
2022-10-13T01:05:53.664Z,9.55
2022-10-13T01:11:28.908Z,7.50
2022-10-13T01:16:40.882Z,5.22
2022-10-13T01:21:53.265Z,8.90
2022-10-13T01:27:19.296Z,12.05
2022-10-13T01:32:31.761Z,6.85
2022-10-13T01:37:44.677Z,8.73
2022-10-13T01:43:09.539Z,11.43
2022-10-13T01:48:11.232Z,12.10
2022-10-13T01:53:14.576Z,12.32
2022-10-13T01:58:16.026Z,10.40
2022-10-13T02:03:29.764Z,11.27
2022-10-13T02:08:38.207Z,11.75
2022-10-13T02:13:46.075Z,9.63
2022-10-13T02:18:48.022Z,8.20
2022-10-13T02:23:49.641Z,11.07
2022-10-13T02:28:51.620Z,9.35
2022-10-13T02:33:53.157Z,10.00
2022-10-13T02:38:54.634Z,11.05
2022-10-13T02:43:56.999Z,9.20
2022-10-13T02:48:58.803Z,10.57
2022-10-13T02:54:00.236Z,14.02
2022-10-13T02:59:01.719Z,10.13
2022-10-13T03:04:03.149Z,7.10
2022-10-13T03:09:04.825Z,11.95
2022-10-13T03:14:06.322Z,12.65
2022-10-13T03:19:07.819Z,13.48
2022-10-13T03:24:09.320Z,10.70
2022-10-13T03:29:15.649Z,12.07
2022-10-13T03:34:17.903Z,14.05
2022-10-13T03:39:19.365Z,12.15
2022-10-13T03:44:20.932Z,10.27
2022-10-13T03:49:22.370Z,13.82
2022-10-13T03:54:24.709Z,12.52
2022-10-13T03:59:26.139Z,10.70
2022-10-13T04:04:27.898Z,8.02
2022-10-13T04:09:29.358Z,8.73
2022-10-13T04:14:30.934Z,11.38
2022-10-13T04:19:32.402Z,11.68
2022-10-13T04:24:33.917Z,12.35
2022-10-13T04:29:35.366Z,13.48
2022-10-13T04:34:36.921Z,10.82
2022-10-13T04:39:38.424Z,12.98
2022-10-13T04:44:39.845Z,9.30
2022-10-13T04:49:41.276Z,11.43
2022-10-13T04:54:43.195Z,13.05
2022-10-13T04:59:44.624Z,11.88
2022-10-13T05:04:46.221Z,14.85
2022-10-13T05:09:47.799Z,15.98
2022-10-13T05:14:52.290Z,16.13
2022-10-13T05:19:54.144Z,14.10
2022-10-13T05:24:55.577Z,16.77
2022-10-13T05:29:57.091Z,14.68
2022-10-13T05:34:58.632Z,16.30
2022-10-13T05:40:00.175Z,20.60
2022-10-13T05:45:01.738Z,14.68
2022-10-13T05:50:03.658Z,12.90
2022-10-13T05:55:09.259Z,12.10
2022-10-13T06:00:14.160Z,10.70
2022-10-13T06:05:18.349Z,12.75
2022-10-13T06:10:19.973Z,12.95
2022-10-13T06:15:25.678Z,11.65
2022-10-13T06:20:30.649Z,10.20
2022-10-13T06:25:32.627Z,10.25
2022-10-13T06:30:34.088Z,8.95
2022-10-13T06:35:36.473Z,12.02
2022-10-13T06:40:38.491Z,11.15
2022-10-13T06:45:40.090Z,9.45
2022-10-13T06:50:43.031Z,8.18
2022-10-13T06:55:47.044Z,14.63
2022-10-13T07:00:50.603Z,13.70
2022-10-13T07:05:52.199Z,13.05
2022-10-13T07:10:53.655Z,15.77
2022-10-13T07:15:55.185Z,13.13
2022-10-13T07:20:58.875Z,12.60
2022-10-13T07:26:01.722Z,11.93
2022-10-13T07:31:11.908Z,16.23
2022-10-13T07:36:14.058Z,12.32
2022-10-13T07:41:16.156Z,10.15
2022-10-13T07:46:17.635Z,10.32
2022-10-13T07:51:19.705Z,8.98
2022-10-13T07:56:21.204Z,11.05
2022-10-13T08:01:22.710Z,14.60
2022-10-13T08:06:24.218Z,14.90
2022-10-13T08:11:26.138Z,14.15
2022-10-13T08:16:28.857Z,11.50
2022-10-13T08:21:56.889Z,10.23
2022-10-13T08:26:51.945Z,10.38
2022-10-13T08:31:54.278Z,12.20
2022-10-13T08:36:56.743Z,12.70
2022-10-13T08:41:58.604Z,12.05
2022-10-13T08:47:12.430Z,16.13
2022-10-13T08:52:22.633Z,12.38
2022-10-13T08:57:24.437Z,10.52
2022-10-13T09:02:31.344Z,18.17
2022-10-13T09:07:36.367Z,15.55
2022-10-13T09:12:38.173Z,15.77
2022-10-13T09:17:41.698Z,16.48
2022-10-13T09:22:43.840Z,16.50
2022-10-13T09:27:58.692Z,21.98
2022-10-13T09:33:23.280Z,20.40
2022-10-13T09:38:26.497Z,24.83
2022-10-13T09:43:30.006Z,26.13
2022-10-13T09:48:36.566Z,24.85
2022-10-13T09:53:40.642Z,21.42
2022-10-13T09:59:07.129Z,23.55
2022-10-13T10:04:16.240Z,22.23
2022-10-13T10:09:44.025Z,18.85
2022-10-13T10:14:45.765Z,22.05
2022-10-13T10:20:03.814Z,25.85
2022-10-13T10:25:36.187Z,22.38
2022-10-13T10:30:47.811Z,17.73
2022-10-13T10:35:57.428Z,24.20
2022-10-13T10:41:07.498Z,22.83
2022-10-13T10:46:22.570Z,17.23
2022-10-13T10:51:29.673Z,18.70
2022-10-13T10:56:37.417Z,26.08
2022-10-13T11:02:03.148Z,23.38
2022-10-13T11:07:05.168Z,22.13
2022-10-13T11:12:22.192Z,20.17
2022-10-13T11:17:32.407Z,17.67
2022-10-13T11:22:33.880Z,17.50
2022-10-13T11:27:35.327Z,19.40
2022-10-13T11:32:36.846Z,18.13
2022-10-13T11:38:07.700Z,20.70
2022-10-13T11:43:22.579Z,19.48
2022-10-13T11:49:02.000Z,17.23
2022-10-13T11:54:35.256Z,21.10
2022-10-13T11:59:39.970Z,24.90
2022-10-13T12:04:46.331Z,17.13
2022-10-13T12:09:53.875Z,16.27
2022-10-13T12:14:59.787Z,22.77
2022-10-13T12:20:21.630Z,21.02
2022-10-13T12:25:26.665Z,14.93
2022-10-13T12:30:37.210Z,18.92
2022-10-13T12:35:38.743Z,19.42
2022-10-13T12:40:40.340Z,24.05
2022-10-13T12:45:44.941Z,23.20
2022-10-13T12:50:46.654Z,21.17
2022-10-13T12:55:53.466Z,27.83
2022-10-13T13:01:13.178Z,22.60
2022-10-13T13:06:14.632Z,22.07
2022-10-13T13:11:33.443Z,25.75
2022-10-13T13:16:34.898Z,17.95
2022-10-13T13:21:36.347Z,18.58
2022-10-13T13:26:37.840Z,21.27
2022-10-13T13:31:39.272Z,30.33
2022-10-13T13:36:41.648Z,19.77
2022-10-13T13:41:43.097Z,22.88
2022-10-13T13:46:44.560Z,25.40
2022-10-13T13:51:46.056Z,30.23
2022-10-13T13:56:47.489Z,20.67
2022-10-13T14:01:49.000Z,20.08
2022-10-13T14:06:51.898Z,21.33
2022-10-13T14:11:53.315Z,18.65
2022-10-13T14:16:54.847Z,22.95
2022-10-13T14:21:56.359Z,18.67
2022-10-13T14:26:58.071Z,22.23
2022-10-13T14:31:59.533Z,21.15
2022-10-13T14:37:01.006Z,15.40
2022-10-13T14:42:02.519Z,22.38
2022-10-13T14:47:03.988Z,17.08
2022-10-13T14:52:05.544Z,19.45
2022-10-13T14:57:08.287Z,21.63
2022-10-13T15:02:11.203Z,19.40
2022-10-13T15:07:12.725Z,18.05
2022-10-13T15:12:14.219Z,24.90
2022-10-13T15:17:15.714Z,17.42
2022-10-13T15:22:17.170Z,14.15
2022-10-13T15:27:18.734Z,13.68
2022-10-13T15:32:21.013Z,15.23
2022-10-13T15:37:22.896Z,15.75
2022-10-13T15:42:24.597Z,14.07
2022-10-13T15:47:26.088Z,14.75
2022-10-13T15:52:32.219Z,15.68
2022-10-13T15:57:36.203Z,17.42
2022-10-13T16:02:37.762Z,12.80
2022-10-13T16:07:40.677Z,16.45
2022-10-13T16:12:49.221Z,14.75
2022-10-13T16:17:54.809Z,13.00
2022-10-13T16:22:56.254Z,17.80
2022-10-13T16:27:59.269Z,13.43
2022-10-13T16:33:00.712Z,14.10
2022-10-13T16:38:02.177Z,17.65
2022-10-13T16:43:03.616Z,22.38
2022-10-13T16:48:05.231Z,15.73
2022-10-13T16:53:06.734Z,15.38
2022-10-13T16:58:08.543Z,22.50
2022-10-13T17:03:10.405Z,18.05
2022-10-13T17:08:11.822Z,15.32
2022-10-13T17:13:13.267Z,15.07
2022-10-13T17:18:14.823Z,10.25
2022-10-13T17:23:17.112Z,16.33
2022-10-13T17:28:19.347Z,13.82
2022-10-13T17:33:20.840Z,12.43
2022-10-13T17:38:23.013Z,19.60
2022-10-13T17:43:24.473Z,17.58
2022-10-13T17:48:25.896Z,12.70
2022-10-13T17:53:27.331Z,25.45
2022-10-13T17:58:29.575Z,21.02
2022-10-13T18:03:31.218Z,25.75
2022-10-13T18:08:32.894Z,18.88
2022-10-13T18:13:35.324Z,24.30
2022-10-13T18:18:38.008Z,20.38
2022-10-13T18:23:40.553Z,21.20
2022-10-13T18:28:45.877Z,17.05
2022-10-13T18:33:47.681Z,31.00
2022-10-13T18:38:50.250Z,24.60
2022-10-13T18:43:51.905Z,24.25
2022-10-13T18:48:53.426Z,23.38
2022-10-13T18:53:54.942Z,23.52
2022-10-13T18:58:59.714Z,24.13
2022-10-13T19:04:01.768Z,26.73
2022-10-13T19:09:09.145Z,20.10
2022-10-13T19:14:12.682Z,20.35
2022-10-13T19:19:14.602Z,20.92
2022-10-13T19:24:16.081Z,24.20
2022-10-13T19:29:17.550Z,23.08
2022-10-13T19:34:19.105Z,16.85
2022-10-13T19:39:23.790Z,23.77
2022-10-13T19:44:25.780Z,17.67
2022-10-13T19:49:27.287Z,16.25
2022-10-13T19:54:33.623Z,15.77
2022-10-13T19:59:36.383Z,13.23
2022-10-13T20:04:37.821Z,20.15
2022-10-13T20:09:39.315Z,22.17
2022-10-13T20:14:40.919Z,14.63
2022-10-13T20:19:43.337Z,27.10
2022-10-13T20:24:44.779Z,12.95
2022-10-13T20:29:46.720Z,13.25
2022-10-13T20:34:48.190Z,16.95
2022-10-13T20:39:49.688Z,14.73
2022-10-13T20:44:51.230Z,17.45
2022-10-13T20:49:53.289Z,16.25
2022-10-13T20:54:54.795Z,15.27
2022-10-13T20:59:56.204Z,15.95
2022-10-13T21:04:57.741Z,15.00
2022-10-13T21:09:59.175Z,14.70
2022-10-13T21:15:00.620Z,15.63
2022-10-13T21:20:02.130Z,11.48
2022-10-13T21:25:03.832Z,12.10
2022-10-13T21:30:06.603Z,16.65
2022-10-13T21:35:08.718Z,13.43
2022-10-13T21:40:10.324Z,14.15
2022-10-13T21:45:11.800Z,13.30
2022-10-13T21:50:13.313Z,11.75
2022-10-13T21:55:14.881Z,11.43
2022-10-13T22:00:16.682Z,14.05
2022-10-13T22:05:18.262Z,18.50
2022-10-13T22:10:19.905Z,15.25
2022-10-13T22:15:21.331Z,15.18
2022-10-13T22:20:22.738Z,16.38
2022-10-13T22:25:24.229Z,11.45
2022-10-13T22:30:25.693Z,17.35
2022-10-13T22:35:27.171Z,14.02
2022-10-13T22:40:29.127Z,13.18
2022-10-13T22:45:30.593Z,10.48
2022-10-13T22:50:34.107Z,12.45
2022-10-13T22:55:39.821Z,13.55
2022-10-13T23:00:44.364Z,15.38
2022-10-13T23:05:49.079Z,14.40
2022-10-13T23:10:50.732Z,13.23
2022-10-13T23:15:52.181Z,10.50
2022-10-13T23:20:56.841Z,10.02
2022-10-13T23:26:07.492Z,11.40
2022-10-13T23:31:14.846Z,12.05
2022-10-13T23:36:19.695Z,9.05
2022-10-13T23:41:21.214Z,18.52
2022-10-13T23:46:22.788Z,8.68
2022-10-13T23:51:25.914Z,10.35
2022-10-13T23:56:27.626Z,8.80
